createdAt,value
2022-12-17T00:08:33.226Z,21.30
2022-12-17T00:14:00.173Z,15.50
2022-12-17T00:19:26.924Z,14.60
2022-12-17T00:24:52.448Z,22.40
2022-12-17T00:30:18.390Z,18.00
2022-12-17T00:35:45.158Z,17.00
2022-12-17T00:41:11.610Z,16.00
2022-12-17T00:46:37.367Z,15.80
2022-12-17T00:52:04.316Z,15.80
2022-12-17T00:57:29.643Z,16.10
2022-12-17T01:02:56.493Z,14.80
2022-12-17T01:08:34.838Z,20.70
2022-12-17T01:14:01.941Z,16.60
2022-12-17T01:19:28.757Z,23.70
2022-12-17T01:24:55.301Z,21.50
2022-12-17T01:30:22.788Z,16.90
2022-12-17T01:35:48.236Z,14.50
2022-12-17T01:41:27.957Z,12.80
2022-12-17T01:46:56.602Z,16.60
2022-12-17T01:52:24.081Z,18.80
2022-12-17T01:57:52.052Z,15.80
2022-12-17T02:03:20.779Z,13.20
2022-12-17T02:08:58.233Z,15.10
2022-12-17T02:14:37.114Z,14.30
2022-12-17T02:20:10.327Z,13.10
2022-12-17T02:25:50.297Z,11.80
2022-12-17T02:31:18.974Z,10.90
2022-12-17T02:36:46.770Z,13.60
2022-12-17T02:42:22.950Z,11.10
2022-12-17T02:48:05.598Z,12.80
2022-12-17T02:53:33.585Z,11.20
2022-12-17T02:59:00.283Z,11.80
2022-12-17T03:04:28.439Z,10.90
2022-12-17T03:09:53.771Z,12.30
2022-12-17T03:15:19.809Z,11.50
2022-12-17T03:20:46.920Z,11.50
2022-12-17T03:26:14.451Z,11.10
2022-12-17T03:31:40.585Z,11.40
2022-12-17T03:37:07.260Z,11.50
2022-12-17T03:42:34.223Z,12.80
2022-12-17T03:48:00.881Z,10.90
2022-12-17T03:53:26.825Z,12.40
2022-12-17T03:58:52.250Z,11.30
2022-12-17T04:04:19.320Z,12.00
2022-12-17T04:09:46.714Z,11.90
2022-12-17T04:15:13.861Z,11.50
2022-12-17T04:20:39.598Z,11.70
2022-12-17T04:26:06.786Z,13.70
2022-12-17T04:31:34.614Z,11.50
2022-12-17T04:37:01.632Z,13.30
2022-12-17T04:42:28.278Z,17.10
2022-12-17T04:47:54.527Z,11.90
2022-12-17T04:53:24.154Z,12.80
2022-12-17T04:58:50.812Z,11.90
2022-12-17T05:04:16.453Z,12.00
2022-12-17T05:09:41.979Z,12.70
2022-12-17T05:15:07.926Z,13.50
2022-12-17T05:20:35.536Z,11.20
2022-12-17T05:26:00.103Z,12.30
2022-12-17T05:31:27.333Z,11.20
2022-12-17T05:36:54.680Z,13.10
2022-12-17T05:42:21.615Z,62.20
2022-12-17T05:47:47.450Z,51.50
2022-12-17T05:53:16.507Z,264.80
2022-12-17T05:58:43.038Z,137.30
2022-12-17T06:04:10.348Z,98.80
2022-12-17T06:09:37.473Z,46.50
2022-12-17T06:15:03.303Z,25.50
2022-12-17T06:20:31.184Z,17.60
2022-12-17T06:25:58.262Z,14.90
2022-12-17T06:31:25.607Z,15.60
2022-12-17T06:36:52.695Z,12.00
2022-12-17T06:42:19.867Z,17.70
2022-12-17T06:47:46.627Z,17.80
2022-12-17T06:53:20.552Z,19.70
2022-12-17T06:58:47.068Z,18.60
2022-12-17T07:04:11.426Z,64.20
2022-12-17T07:09:37.043Z,104.60
2022-12-17T07:15:02.561Z,153.90
2022-12-17T07:20:33.224Z,147.60
2022-12-17T07:26:00.123Z,117.30
2022-12-17T07:31:25.805Z,96.30
2022-12-17T07:36:52.909Z,34.10
2022-12-17T07:42:18.831Z,42.80
2022-12-17T07:47:45.696Z,33.60
2022-12-17T07:53:22.089Z,29.70
2022-12-17T07:58:47.943Z,22.90
2022-12-17T08:04:14.274Z,27.70
2022-12-17T08:09:40.217Z,16.20
2022-12-17T08:15:06.985Z,29.00
2022-12-17T08:20:34.652Z,28.60
2022-12-17T08:26:00.696Z,22.40
2022-12-17T08:31:28.273Z,19.90
2022-12-17T08:36:54.644Z,20.90
2022-12-17T08:42:20.879Z,30.00
2022-12-17T08:47:47.044Z,37.70
2022-12-17T08:53:24.017Z,38.50
2022-12-17T08:59:02.352Z,34.00
2022-12-17T09:04:29.618Z,31.80
2022-12-17T09:09:55.050Z,21.50
2022-12-17T09:15:21.401Z,14.90
2022-12-17T09:20:47.968Z,12.20
2022-12-17T09:26:17.484Z,12.20
2022-12-17T09:31:43.043Z,15.20
2022-12-17T09:37:09.966Z,16.20
2022-12-17T09:42:50.032Z,28.60
2022-12-17T09:48:32.237Z,102.50
2022-12-17T09:54:04.873Z,60.60
2022-12-17T09:59:36.656Z,69.10
2022-12-17T10:05:03.842Z,35.10
2022-12-17T10:10:39.285Z,39.20
2022-12-17T10:16:06.384Z,63.40
2022-12-17T10:21:35.036Z,27.20
2022-12-17T10:27:11.068Z,20.20
2022-12-17T10:32:44.384Z,22.30
2022-12-17T10:38:11.455Z,20.10
2022-12-17T10:43:53.735Z,22.20
2022-12-17T10:54:58.017Z,20.00
2022-12-17T11:00:34.921Z,17.60
2022-12-17T11:06:12.739Z,13.80
2022-12-17T11:11:39.278Z,12.70
2022-12-17T11:17:10.649Z,81.70
2022-12-17T11:22:55.428Z,29.00
2022-12-17T11:28:32.534Z,57.10
2022-12-17T11:34:05.653Z,71.80
2022-12-17T11:39:35.987Z,56.40
2022-12-17T11:45:13.366Z,49.20
2022-12-17T11:50:47.104Z,32.00
2022-12-17T11:56:21.774Z,17.70
2022-12-17T12:01:54.527Z,31.80
2022-12-17T12:07:31.083Z,24.10
2022-12-17T12:13:11.839Z,18.30
2022-12-17T12:18:45.829Z,17.50
2022-12-17T12:24:38.132Z,21.60
2022-12-17T12:30:12.087Z,15.00
2022-12-17T12:35:43.758Z,19.70
2022-12-17T12:41:20.299Z,19.10
2022-12-17T12:46:56.934Z,27.10
2022-12-17T12:52:23.471Z,38.00
2022-12-17T12:57:54.231Z,56.20
2022-12-17T13:03:39.735Z,53.00
2022-12-17T13:08:48.469Z,28.70
2022-12-17T13:13:59.538Z,19.40
2022-12-17T13:19:22.856Z,31.00
2022-12-17T13:24:31.587Z,43.50
2022-12-17T13:29:41.828Z,37.60
2022-12-17T13:35:03.343Z,30.30
2022-12-17T13:40:30.603Z,25.60
2022-12-17T13:50:57.588Z,21.20
2022-12-17T13:56:06.279Z,21.80
2022-12-17T14:01:20.759Z,20.60
2022-12-17T14:06:34.370Z,17.10
2022-12-17T14:12:00.508Z,19.90
2022-12-17T14:17:09.114Z,27.40
2022-12-17T14:22:22.093Z,21.20
2022-12-17T14:27:33.592Z,23.70
2022-12-17T14:32:44.858Z,15.90
2022-12-17T14:37:52.856Z,17.00
2022-12-17T14:43:04.009Z,22.10
2022-12-17T14:48:19.376Z,15.10
2022-12-17T14:53:31.229Z,26.70
2022-12-17T14:58:48.805Z,36.90
2022-12-17T15:03:57.655Z,56.50
2022-12-17T15:09:06.591Z,60.70
2022-12-17T15:14:14.855Z,47.10
2022-12-17T15:19:23.018Z,38.20
2022-12-17T15:24:31.359Z,39.80
2022-12-17T15:29:39.531Z,26.80
2022-12-17T15:34:47.974Z,17.20
2022-12-17T15:39:56.756Z,20.40
2022-12-17T15:45:05.348Z,19.30
2022-12-17T15:50:14.283Z,15.20
2022-12-17T15:55:22.887Z,32.90
2022-12-17T16:00:32.209Z,26.60
2022-12-17T16:05:40.801Z,16.50
2022-12-17T16:10:49.291Z,13.20
2022-12-17T16:16:04.152Z,16.20
2022-12-17T16:21:12.899Z,21.40
2022-12-17T16:26:21.343Z,130.90
2022-12-17T16:31:29.876Z,71.10
2022-12-17T16:36:38.501Z,52.90
2022-12-17T16:41:46.727Z,59.50
2022-12-17T16:46:54.953Z,26.20
2022-12-17T16:52:04.668Z,12.70
2022-12-17T16:57:12.827Z,16.10
2022-12-17T17:02:21.253Z,26.30
2022-12-17T17:07:30.033Z,17.00
2022-12-17T17:12:38.023Z,18.80
2022-12-17T17:17:54.997Z,16.50
2022-12-17T17:23:04.971Z,11.80
2022-12-17T17:28:14.163Z,13.30
2022-12-17T17:33:22.414Z,23.00
2022-12-17T17:38:30.572Z,30.60
2022-12-17T17:43:38.815Z,16.90
2022-12-17T17:48:50.638Z,33.30
2022-12-17T17:54:07.227Z,71.20
2022-12-17T17:59:20.646Z,69.80
2022-12-17T18:04:29.694Z,28.50
2022-12-17T18:09:38.207Z,31.40
2022-12-17T18:15:11.937Z,17.00
2022-12-17T18:20:15.551Z,23.10
2022-12-17T18:25:24.182Z,14.80
2022-12-17T18:30:32.449Z,8.10
2022-12-17T18:35:41.108Z,9.80
2022-12-17T18:40:49.685Z,7.40
2022-12-17T18:45:58.386Z,7.90
2022-12-17T18:51:10.940Z,10.50
2022-12-17T18:56:44.762Z,8.90
2022-12-17T19:01:49.907Z,7.60
2022-12-17T19:06:58.804Z,9.90
2022-12-17T19:12:09.729Z,11.50
2022-12-17T19:17:18.338Z,11.50
2022-12-17T19:22:26.703Z,26.80
2022-12-17T19:27:34.947Z,33.40
2022-12-17T19:32:43.550Z,17.40
2022-12-17T19:37:53.776Z,12.40
2022-12-17T19:43:01.943Z,10.40
2022-12-17T19:48:10.475Z,8.70
2022-12-17T19:53:20.300Z,9.90
2022-12-17T19:58:28.786Z,9.10
2022-12-17T20:03:38.246Z,7.80
2022-12-17T20:08:47.160Z,15.70
2022-12-17T20:14:06.141Z,12.90
2022-12-17T20:19:16.548Z,17.00
2022-12-17T20:24:31.050Z,18.90
2022-12-17T20:29:41.314Z,10.80
2022-12-17T20:34:49.527Z,8.80
2022-12-17T20:39:58.045Z,8.70
2022-12-17T20:45:06.545Z,12.60
2022-12-17T20:50:15.153Z,16.40
2022-12-17T20:55:29.324Z,32.90
2022-12-17T21:00:39.951Z,14.50
2022-12-17T21:05:48.332Z,14.00
2022-12-17T21:11:01.351Z,19.10
2022-12-17T21:16:12.560Z,17.20
2022-12-17T21:21:23.029Z,30.70
2022-12-17T21:26:33.339Z,23.30
2022-12-17T21:31:43.099Z,31.00
2022-12-17T21:36:51.792Z,16.80
2022-12-17T21:42:18.532Z,9.60
2022-12-17T21:47:27.484Z,11.40
2022-12-17T21:52:35.573Z,19.00
2022-12-17T21:57:44.031Z,13.30
2022-12-17T22:02:52.869Z,12.90
2022-12-17T22:08:01.063Z,14.80
2022-12-17T22:13:40.463Z,14.90
2022-12-17T22:19:31.836Z,11.70
2022-12-17T22:24:41.272Z,22.90
2022-12-17T22:30:10.346Z,13.10
2022-12-17T22:37:55.995Z,10.20
2022-12-17T22:44:29.345Z,8.80
2022-12-17T22:46:16.549Z,9.70
2022-12-17T22:51:27.368Z,8.10
2022-12-17T22:57:15.135Z,8.20
2022-12-17T23:02:12.964Z,10.00
2022-12-17T23:07:22.183Z,10.50
2022-12-17T23:12:50.309Z,9.10
2022-12-17T23:18:00.982Z,11.00
2022-12-17T23:23:09.500Z,8.20
2022-12-17T23:28:17.399Z,7.20
2022-12-17T23:33:25.410Z,8.00
2022-12-17T23:38:40.752Z,10.40
2022-12-17T23:43:49.554Z,8.50
2022-12-17T23:48:57.810Z,8.40
2022-12-17T23:54:06.365Z,10.70
2022-12-17T23:59:14.700Z,9.80
